Aviation Digital Data Service (ADDS)

Output produced by METARs form (1349 UTC 13 December 2019)
found at http://www.aviationweather.gov/metar/data/
 
METAR text: KSNA 131253Z AUTO 02004KT 1 1/4SM BR OVC002 13/12 A3014 RMK AO2 SLP206 T01330117
Conditions at: KSNA (COSTA MESA , CA, US) observed 1253 UTC 13 December 2019
Temperature: 13.3°C (56°F)
Dewpoint: 11.7°C (53°F) [RH = 90%]
Pressure (altimeter): 30.14 inches Hg (1020.7 mb)
[Sea-level pressure: 1020.6 mb]
Winds: from the NNE (20 degrees) at 5 MPH (4 knots; 2.1 m/s)
Visibility: 1.25 miles (2.01 km)
Ceiling: 200 feet AGL
Clouds: overcast cloud deck at 200 feet AGL
Weather: BR  (mist)

METAR text: KSNA 131234Z AUTO 00000KT 3/4SM R20R/3500VP6000FT BR OVC002 13/11 A3014 RMK AO2 T01330111
Conditions at: KSNA (COSTA MESA , CA, US) observed 1234 UTC 13 December 2019
Temperature: 13.3°C (56°F)
Dewpoint: 11.1°C (52°F) [RH = 87%]
Pressure (altimeter): 30.14 inches Hg (1020.7 mb)
Winds: calm
Visibility: 0.75 miles (1.21 km)
Ceiling: 200 feet AGL
Clouds: overcast cloud deck at 200 feet AGL
Weather: BR  (mist)

METAR text: KSNA 131219Z AUTO 00000KT 1 3/4SM HZ OVC002 14/11 A3014 RMK AO2 T01390111
Conditions at: KSNA (COSTA MESA , CA, US) observed 1219 UTC 13 December 2019
Temperature: 13.9°C (57°F)
Dewpoint: 11.1°C (52°F) [RH = 83%]
Pressure (altimeter): 30.14 inches Hg (1020.7 mb)
Winds: calm
Visibility: 1.75 miles (2.82 km)
Ceiling: 200 feet AGL
Clouds: overcast cloud deck at 200 feet AGL
Weather: HZ  (haze)

METAR text: KSNA 131153Z AUTO 00000KT 10SM OVC003 14/11 A3015 RMK AO2 SLP208 T01390106 10161 20128 50001
Conditions at: KSNA (COSTA MESA , CA, US) observed 1153 UTC 13 December 2019
Temperature: 13.9°C (57°F)
Dewpoint: 10.6°C (51°F) [RH = 80%]
Pressure (altimeter): 30.15 inches Hg (1021.1 mb)
[Sea-level pressure: 1020.8 mb]
Winds: calm
Visibility: 10 or more miles (16+ km)
Ceiling: 300 feet AGL
Clouds: overcast cloud deck at 300 feet AGL
Weather: automated observation with no human augmentation;
there may or may not be significant weather present at this time

METAR text: KSNA 131138Z AUTO 00000KT 10SM OVC004 13/11 A3015 RMK AO2 T01330106
Conditions at: KSNA (COSTA MESA , CA, US) observed 1138 UTC 13 December 2019
Temperature: 13.3°C (56°F)
Dewpoint: 10.6°C (51°F) [RH = 84%]
Pressure (altimeter): 30.15 inches Hg (1021.1 mb)
Winds: calm
Visibility: 10 or more miles (16+ km)
Ceiling: 400 feet AGL
Clouds: overcast cloud deck at 400 feet AGL
Weather: automated observation with no human augmentation;
there may or may not be significant weather present at this time

METAR text: KSNA 131105Z AUTO 00000KT 9SM BKN005 13/11 A3015 RMK AO2 T01330106
Conditions at: KSNA (COSTA MESA , CA, US) observed 1105 UTC 13 December 2019
Temperature: 13.3°C (56°F)
Dewpoint: 10.6°C (51°F) [RH = 84%]
Pressure (altimeter): 30.15 inches Hg (1021.1 mb)
Winds: calm
Visibility: 9 miles (14 km)
Ceiling: 500 feet AGL
Clouds: broken clouds at 500 feet AGL
Weather: automated observation with no human augmentation;
there may or may not be significant weather present at this time

METAR text: KSNA 131053Z AUTO 00000KT 8SM FEW005 13/11 A3016 RMK AO2 SLP212 T01330106
Conditions at: KSNA (COSTA MESA , CA, US) observed 1053 UTC 13 December 2019
Temperature: 13.3°C (56°F)
Dewpoint: 10.6°C (51°F) [RH = 84%]
Pressure (altimeter): 30.16 inches Hg (1021.4 mb)
[Sea-level pressure: 1021.2 mb]
Winds: calm
Visibility: 8 miles (13 km)
Ceiling: at least 12,000 feet AGL
Clouds: few clouds at 500 feet AGL
Weather: automated observation with no human augmentation;
there may or may not be significant weather present at this time

METAR text: KSNA 130953Z AUTO 00000KT 8SM CLR 13/11 A3016 RMK AO2 SLP212 T01330106
Conditions at: KSNA (COSTA MESA , CA, US) observed 0953 UTC 13 December 2019
Temperature: 13.3°C (56°F)
Dewpoint: 10.6°C (51°F) [RH = 84%]
Pressure (altimeter): 30.16 inches Hg (1021.4 mb)
[Sea-level pressure: 1021.2 mb]
Winds: calm
Visibility: 8 miles (13 km)
Ceiling: at least 12,000 feet AGL
Clouds: sky clear below 12,000 feet AGL
Weather: automated observation with no human augmentation;
there may or may not be significant weather present at this time

METAR text: KSNA 130853Z AUTO 00000KT 9SM CLR 13/11 A3014 RMK AO2 SLP207 T01330106 58006
Conditions at: KSNA (COSTA MESA , CA, US) observed 0853 UTC 13 December 2019
Temperature: 13.3°C (56°F)
Dewpoint: 10.6°C (51°F) [RH = 84%]
Pressure (altimeter): 30.14 inches Hg (1020.7 mb)
[Sea-level pressure: 1020.7 mb]
Winds: calm
Visibility: 9 miles (14 km)
Ceiling: at least 12,000 feet AGL
Clouds: sky clear below 12,000 feet AGL
Weather: automated observation with no human augmentation;
there may or may not be significant weather present at this time

METAR text: KSNA 130753Z AUTO 00000KT 9SM CLR 14/11 A3016 RMK AO2 SLP211 T01440111 402000117
Conditions at: KSNA (COSTA MESA , CA, US) observed 0753 UTC 13 December 2019
Temperature: 14.4°C (58°F)
Dewpoint: 11.1°C (52°F) [RH = 81%]
Pressure (altimeter): 30.16 inches Hg (1021.4 mb)
[Sea-level pressure: 1021.1 mb]
Winds: calm
Visibility: 9 miles (14 km)
Ceiling: at least 12,000 feet AGL
Clouds: sky clear below 12,000 feet AGL
Weather: automated observation with no human augmentation;
there may or may not be significant weather present at this time

METAR text: KSNA 130653Z 00000KT 10SM CLR 15/12 A3015 RMK AO2 SLP210 LAST T01500117
Conditions at: KSNA (COSTA MESA , CA, US) observed 0653 UTC 13 December 2019
Temperature: 15.0°C (59°F)
Dewpoint: 11.7°C (53°F) [RH = 81%]
Pressure (altimeter): 30.15 inches Hg (1021.1 mb)
[Sea-level pressure: 1021.0 mb]
Winds: calm
Visibility: 10 or more miles (16+ km)
Ceiling: at least 12,000 feet AGL
Clouds: sky clear below 12,000 feet AGL
Weather: no significant weather observed at this time

METAR text: KSNA 130553Z 00000KT 9SM CLR 16/12 A3016 RMK AO2 SLP212 T01560122 10183 20156 50002
Conditions at: KSNA (COSTA MESA , CA, US) observed 0553 UTC 13 December 2019
Temperature: 15.6°C (60°F)
Dewpoint: 12.2°C (54°F) [RH = 80%]
Pressure (altimeter): 30.16 inches Hg (1021.4 mb)
[Sea-level pressure: 1021.2 mb]
Winds: calm
Visibility: 9 miles (14 km)
Ceiling: at least 12,000 feet AGL
Clouds: sky clear below 12,000 feet AGL
Weather: no significant weather observed at this time

METAR text: KSNA 130453Z 00000KT 10SM CLR 16/13 A3016 RMK AO2 SLP214 T01610128
Conditions at: KSNA (COSTA MESA , CA, US) observed 0453 UTC 13 December 2019
Temperature: 16.1°C (61°F)
Dewpoint: 12.8°C (55°F) [RH = 81%]
Pressure (altimeter): 30.16 inches Hg (1021.4 mb)
[Sea-level pressure: 1021.4 mb]
Winds: calm
Visibility: 10 or more miles (16+ km)
Ceiling: at least 12,000 feet AGL
Clouds: sky clear below 12,000 feet AGL
Weather: no significant weather observed at this time

METAR text: KSNA 130353Z 00000KT 10SM FEW250 17/13 A3015 RMK AO2 SLP210 T01720128
Conditions at: KSNA (COSTA MESA , CA, US) observed 0353 UTC 13 December 2019
Temperature: 17.2°C (63°F)
Dewpoint: 12.8°C (55°F) [RH = 75%]
Pressure (altimeter): 30.15 inches Hg (1021.1 mb)
[Sea-level pressure: 1021.0 mb]
Winds: calm
Visibility: 10 or more miles (16+ km)
Ceiling: at least 12,000 feet AGL
Clouds: few clouds at 25000 feet AGL
Weather: no significant weather observed at this time

METAR text: KSNA 130253Z 00000KT 10SM CLR 17/13 A3015 RMK AO2 SLP211 T01670133 51006
Conditions at: KSNA (COSTA MESA , CA, US) observed 0253 UTC 13 December 2019
Temperature: 16.7°C (62°F)
Dewpoint: 13.3°C (56°F) [RH = 80%]
Pressure (altimeter): 30.15 inches Hg (1021.1 mb)
[Sea-level pressure: 1021.1 mb]
Winds: calm
Visibility: 10 or more miles (16+ km)
Ceiling: at least 12,000 feet AGL
Clouds: sky clear below 12,000 feet AGL
Weather: no significant weather observed at this time

METAR text: KSNA 130153Z 21004KT 10SM CLR 17/13 A3015 RMK AO2 SLP210 T01720133
Conditions at: KSNA (COSTA MESA , CA, US) observed 0153 UTC 13 December 2019
Temperature: 17.2°C (63°F)
Dewpoint: 13.3°C (56°F) [RH = 78%]
Pressure (altimeter): 30.15 inches Hg (1021.1 mb)
[Sea-level pressure: 1021.0 mb]
Winds: from the SSW (210 degrees) at 5 MPH (4 knots; 2.1 m/s)
Visibility: 10 or more miles (16+ km)
Ceiling: at least 12,000 feet AGL
Clouds: sky clear below 12,000 feet AGL
Weather: no significant weather observed at this time

METAR text: KSNA 130053Z 22005KT 10SM FEW250 17/13 A3014 RMK AO2 SLP207 T01720133
Conditions at: KSNA (COSTA MESA , CA, US) observed 0053 UTC 13 December 2019
Temperature: 17.2°C (63°F)
Dewpoint: 13.3°C (56°F) [RH = 78%]
Pressure (altimeter): 30.14 inches Hg (1020.7 mb)
[Sea-level pressure: 1020.7 mb]
Winds: from the SW (220 degrees) at 6 MPH (5 knots; 2.6 m/s)
Visibility: 10 or more miles (16+ km)
Ceiling: at least 12,000 feet AGL
Clouds: few clouds at 25000 feet AGL
Weather: no significant weather observed at this time

METAR text: KSNA 122353Z 20007KT 10SM FEW250 18/13 A3014 RMK AO2 SLP205 T01830128 10200 20178 56011
Conditions at: KSNA (COSTA MESA , CA, US) observed 2353 UTC 12 December 2019
Temperature: 18.3°C (65°F)
Dewpoint: 12.8°C (55°F) [RH = 70%]
Pressure (altimeter): 30.14 inches Hg (1020.7 mb)
[Sea-level pressure: 1020.5 mb]
Winds: from the SSW (200 degrees) at 8 MPH (7 knots; 3.6 m/s)
Visibility: 10 or more miles (16+ km)
Ceiling: at least 12,000 feet AGL
Clouds: few clouds at 25000 feet AGL
Weather: no significant weather observed at this time

METAR text: KSNA 122253Z 21008KT 10SM FEW250 20/13 A3014 RMK AO2 SLP207 T02000128
Conditions at: KSNA (COSTA MESA , CA, US) observed 2253 UTC 12 December 2019
Temperature: 20.0°C (68°F)
Dewpoint: 12.8°C (55°F) [RH = 63%]
Pressure (altimeter): 30.14 inches Hg (1020.7 mb)
[Sea-level pressure: 1020.7 mb]
Winds: from the SSW (210 degrees) at 9 MPH (8 knots; 4.1 m/s)
Visibility: 10 or more miles (16+ km)
Ceiling: at least 12,000 feet AGL
Clouds: few clouds at 25000 feet AGL
Weather: no significant weather observed at this time

METAR text: KSNA 122153Z 21008KT 10SM BKN200 19/13 A3015 RMK AO2 SLP209 T01940128
Conditions at: KSNA (COSTA MESA , CA, US) observed 2153 UTC 12 December 2019
Temperature: 19.4°C (67°F)
Dewpoint: 12.8°C (55°F) [RH = 66%]
Pressure (altimeter): 30.15 inches Hg (1021.1 mb)
[Sea-level pressure: 1020.9 mb]
Winds: from the SSW (210 degrees) at 9 MPH (8 knots; 4.1 m/s)
Visibility: 10 or more miles (16+ km)
Ceiling: 20000 feet AGL
Clouds: broken clouds at 20000 feet AGL
Weather: no significant weather observed at this time

METAR text: KSNA 122053Z 20008KT 10SM BKN200 19/13 A3017 RMK AO2 SLP216 T01940128 58024
Conditions at: KSNA (COSTA MESA , CA, US) observed 2053 UTC 12 December 2019
Temperature: 19.4°C (67°F)
Dewpoint: 12.8°C (55°F) [RH = 66%]
Pressure (altimeter): 30.17 inches Hg (1021.8 mb)
[Sea-level pressure: 1021.6 mb]
Winds: from the SSW (200 degrees) at 9 MPH (8 knots; 4.1 m/s)
Visibility: 10 or more miles (16+ km)
Ceiling: 20000 feet AGL
Clouds: broken clouds at 20000 feet AGL
Weather: no significant weather observed at this time

METAR text: KSNA 121953Z 20005KT 10SM BKN200 19/13 A3019 RMK AO2 SLP224 T01940133
Conditions at: KSNA (COSTA MESA , CA, US) observed 1953 UTC 12 December 2019
Temperature: 19.4°C (67°F)
Dewpoint: 13.3°C (56°F) [RH = 68%]
Pressure (altimeter): 30.19 inches Hg (1022.4 mb)
[Sea-level pressure: 1022.4 mb]
Winds: from the SSW (200 degrees) at 6 MPH (5 knots; 2.6 m/s)
Visibility: 10 or more miles (16+ km)
Ceiling: 20000 feet AGL
Clouds: broken clouds at 20000 feet AGL
Weather: no significant weather observed at this time

METAR text: KSNA 121853Z 19004KT 10SM FEW014 BKN200 19/13 A3023 RMK AO2 SLP236 T01940133
Conditions at: KSNA (COSTA MESA , CA, US) observed 1853 UTC 12 December 2019
Temperature: 19.4°C (67°F)
Dewpoint: 13.3°C (56°F) [RH = 68%]
Pressure (altimeter): 30.23 inches Hg (1023.8 mb)
[Sea-level pressure: 1023.6 mb]
Winds: from the S (190 degrees) at 5 MPH (4 knots; 2.1 m/s)
Visibility: 10 or more miles (16+ km)
Ceiling: 20000 feet AGL
Clouds: few clouds at 1400 feet AGL
broken clouds at 20000 feet AGL
Weather: no significant weather observed at this time

METAR text: KSNA 121753Z 00000KT 9SM FEW014 BKN200 18/12 A3024 RMK AO2 SLP240 T01780122 10178 20117 51011
Conditions at: KSNA (COSTA MESA , CA, US) observed 1753 UTC 12 December 2019
Temperature: 17.8°C (64°F)
Dewpoint: 12.2°C (54°F) [RH = 70%]
Pressure (altimeter): 30.24 inches Hg (1024.1 mb)
[Sea-level pressure: 1024.0 mb]
Winds: calm
Visibility: 9 miles (14 km)
Ceiling: 20000 feet AGL
Clouds: few clouds at 1400 feet AGL
broken clouds at 20000 feet AGL
Weather: no significant weather observed at this time

METAR text: KSNA 121653Z 00000KT 10SM SCT012 BKN200 16/09 A3023 RMK AO2 SLP237 T01610094
Conditions at: KSNA (COSTA MESA , CA, US) observed 1653 UTC 12 December 2019
Temperature: 16.1°C (61°F)
Dewpoint: 9.4°C (49°F) [RH = 64%]
Pressure (altimeter): 30.23 inches Hg (1023.8 mb)
[Sea-level pressure: 1023.7 mb]
Winds: calm
Visibility: 10 or more miles (16+ km)
Ceiling: 20000 feet AGL
Clouds: scattered clouds at 1200 feet AGL
broken clouds at 20000 feet AGL
Weather: no significant weather observed at this time

METAR text: KSNA 121553Z 00000KT 10SM SCT011 BKN200 14/08 A3022 RMK AO2 SLP234 T01390083
Conditions at: KSNA (COSTA MESA , CA, US) observed 1553 UTC 12 December 2019
Temperature: 13.9°C (57°F)
Dewpoint: 8.3°C (47°F) [RH = 69%]
Pressure (altimeter): 30.22 inches Hg (1023.5 mb)
[Sea-level pressure: 1023.4 mb]
Winds: calm
Visibility: 10 or more miles (16+ km)
Ceiling: 20000 feet AGL
Clouds: scattered clouds at 1100 feet AGL
broken clouds at 20000 feet AGL
Weather: no significant weather observed at this time

METAR text: KSNA 121453Z 00000KT 10SM FEW012 BKN200 13/08 A3021 RMK AO2 SLP229 T01280078 53008
Conditions at: KSNA (COSTA MESA , CA, US) observed 1453 UTC 12 December 2019
Temperature: 12.8°C (55°F)
Dewpoint: 7.8°C (46°F) [RH = 72%]
Pressure (altimeter): 30.21 inches Hg (1023.1 mb)
[Sea-level pressure: 1022.9 mb]
Winds: calm
Visibility: 10 or more miles (16+ km)
Ceiling: 20000 feet AGL
Clouds: few clouds at 1200 feet AGL
broken clouds at 20000 feet AGL
Weather: no significant weather observed at this time

METAR text: KSNA 121353Z 00000KT 10SM SCT200 12/08 A3019 RMK AO2 SLP224 T01220083
Conditions at: KSNA (COSTA MESA , CA, US) observed 1353 UTC 12 December 2019
Temperature: 12.2°C (54°F)
Dewpoint: 8.3°C (47°F) [RH = 77%]
Pressure (altimeter): 30.19 inches Hg (1022.4 mb)
[Sea-level pressure: 1022.4 mb]
Winds: calm
Visibility: 10 or more miles (16+ km)
Ceiling: at least 12,000 feet AGL
Clouds: scattered clouds at 20000 feet AGL
Weather: no significant weather observed at this time

METAR text: KSNA 121253Z AUTO 00000KT 10SM CLR 12/08 A3019 RMK AO2 SLP222 T01220078
Conditions at: KSNA (COSTA MESA , CA, US) observed 1253 UTC 12 December 2019
Temperature: 12.2°C (54°F)
Dewpoint: 7.8°C (46°F) [RH = 74%]
Pressure (altimeter): 30.19 inches Hg (1022.4 mb)
[Sea-level pressure: 1022.2 mb]
Winds: calm
Visibility: 10 or more miles (16+ km)
Ceiling: at least 12,000 feet AGL
Clouds: sky clear below 12,000 feet AGL
Weather: automated observation with no human augmentation;
there may or may not be significant weather present at this time

METAR text: KSNA 121153Z AUTO 00000KT 10SM CLR 12/08 A3018 RMK AO2 SLP220 T01170078 10150 20117 50002
Conditions at: KSNA (COSTA MESA , CA, US) observed 1153 UTC 12 December 2019
Temperature: 11.7°C (53°F)
Dewpoint: 7.8°C (46°F) [RH = 77%]
Pressure (altimeter): 30.18 inches Hg (1022.1 mb)
[Sea-level pressure: 1022.0 mb]
Winds: calm
Visibility: 10 or more miles (16+ km)
Ceiling: at least 12,000 feet AGL
Clouds: sky clear below 12,000 feet AGL
Weather: automated observation with no human augmentation;
there may or may not be significant weather present at this time

METAR text: KSNA 121053Z AUTO 00000KT 10SM CLR 12/09 A3019 RMK AO2 SLP223 T01220089
Conditions at: KSNA (COSTA MESA , CA, US) observed 1053 UTC 12 December 2019
Temperature: 12.2°C (54°F)
Dewpoint: 8.9°C (48°F) [RH = 80%]
Pressure (altimeter): 30.19 inches Hg (1022.4 mb)
[Sea-level pressure: 1022.3 mb]
Winds: calm
Visibility: 10 or more miles (16+ km)
Ceiling: at least 12,000 feet AGL
Clouds: sky clear below 12,000 feet AGL
Weather: automated observation with no human augmentation;
there may or may not be significant weather present at this time

METAR text: KSNA 120953Z AUTO 00000KT 10SM CLR 13/08 A3018 RMK AO2 SLP218 T01280083
Conditions at: KSNA (COSTA MESA , CA, US) observed 0953 UTC 12 December 2019
Temperature: 12.8°C (55°F)
Dewpoint: 8.3°C (47°F) [RH = 74%]
Pressure (altimeter): 30.18 inches Hg (1022.1 mb)
[Sea-level pressure: 1021.8 mb]
Winds: calm
Visibility: 10 or more miles (16+ km)
Ceiling: at least 12,000 feet AGL
Clouds: sky clear below 12,000 feet AGL
Weather: automated observation with no human augmentation;
there may or may not be significant weather present at this time

METAR text: KSNA 120853Z AUTO 03003KT 10SM CLR 13/09 A3017 RMK AO2 SLP218 T01280089 58003
Conditions at: KSNA (COSTA MESA , CA, US) observed 0853 UTC 12 December 2019
Temperature: 12.8°C (55°F)
Dewpoint: 8.9°C (48°F) [RH = 77%]
Pressure (altimeter): 30.17 inches Hg (1021.8 mb)
[Sea-level pressure: 1021.8 mb]
Winds: from the NNE (30 degrees) at 3 MPH (3 knots; 1.5 m/s)
Visibility: 10 or more miles (16+ km)
Ceiling: at least 12,000 feet AGL
Clouds: sky clear below 12,000 feet AGL
Weather: automated observation with no human augmentation;
there may or may not be significant weather present at this time

METAR text: KSNA 120753Z AUTO 00000KT 10SM CLR 14/09 A3018 RMK AO2 SLP219 T01390094 402060100
Conditions at: KSNA (COSTA MESA , CA, US) observed 0753 UTC 12 December 2019
Temperature: 13.9°C (57°F)
Dewpoint: 9.4°C (49°F) [RH = 74%]
Pressure (altimeter): 30.18 inches Hg (1022.1 mb)
[Sea-level pressure: 1021.9 mb]
Winds: calm
Visibility: 10 or more miles (16+ km)
Ceiling: at least 12,000 feet AGL
Clouds: sky clear below 12,000 feet AGL
Weather: automated observation with no human augmentation;
there may or may not be significant weather present at this time

METAR text: KSNA 120653Z COR 00000KT 10SM BKN200 14/10 A3019 RMK AO2 SLP223 T01440100
Conditions at: KSNA (COSTA MESA , CA, US) observed 0653 UTC 12 December 2019
Temperature: 14.4°C (58°F)
Dewpoint: 10.0°C (50°F) [RH = 75%]
Pressure (altimeter): 30.19 inches Hg (1022.4 mb)
[Sea-level pressure: 1022.3 mb]
Winds: calm
Visibility: 10 or more miles (16+ km)
Ceiling: 20000 feet AGL
Clouds: broken clouds at 20000 feet AGL
Weather: no significant weather observed at this time

METAR text: KSNA 120553Z 00000KT 10SM SCT200 14/11 A3019 RMK AO2 SLP221 T01440111 10189 20144 51011
Conditions at: KSNA (COSTA MESA , CA, US) observed 0553 UTC 12 December 2019
Temperature: 14.4°C (58°F)
Dewpoint: 11.1°C (52°F) [RH = 81%]
Pressure (altimeter): 30.19 inches Hg (1022.4 mb)
[Sea-level pressure: 1022.1 mb]
Winds: calm
Visibility: 10 or more miles (16+ km)
Ceiling: at least 12,000 feet AGL
Clouds: scattered clouds at 20000 feet AGL
Weather: no significant weather observed at this time

METAR text: KSNA 120453Z 14003KT 10SM SCT200 15/11 A3018 RMK AO2 SLP218 T01500111
Conditions at: KSNA (COSTA MESA , CA, US) observed 0453 UTC 12 December 2019
Temperature: 15.0°C (59°F)
Dewpoint: 11.1°C (52°F) [RH = 77%]
Pressure (altimeter): 30.18 inches Hg (1022.1 mb)
[Sea-level pressure: 1021.8 mb]
Winds: from the SE (140 degrees) at 3 MPH (3 knots; 1.5 m/s)
Visibility: 10 or more miles (16+ km)
Ceiling: at least 12,000 feet AGL
Clouds: scattered clouds at 20000 feet AGL
Weather: no significant weather observed at this time

METAR text: KSNA 120353Z 15003KT 10SM SCT200 16/11 A3017 RMK AO2 SLP216 T01560111
Conditions at: KSNA (COSTA MESA , CA, US) observed 0353 UTC 12 December 2019
Temperature: 15.6°C (60°F)
Dewpoint: 11.1°C (52°F) [RH = 75%]
Pressure (altimeter): 30.17 inches Hg (1021.8 mb)
[Sea-level pressure: 1021.6 mb]
Winds: from the SSE (150 degrees) at 3 MPH (3 knots; 1.5 m/s)
Visibility: 10 or more miles (16+ km)
Ceiling: at least 12,000 feet AGL
Clouds: scattered clouds at 20000 feet AGL
Weather: no significant weather observed at this time

METAR text: KSNA 120253Z 18004KT 10SM SCT200 16/11 A3015 RMK AO2 SLP210 T01610111 50005
Conditions at: KSNA (COSTA MESA , CA, US) observed 0253 UTC 12 December 2019
Temperature: 16.1°C (61°F)
Dewpoint: 11.1°C (52°F) [RH = 72%]
Pressure (altimeter): 30.15 inches Hg (1021.1 mb)
[Sea-level pressure: 1021.0 mb]
Winds: from the S (180 degrees) at 5 MPH (4 knots; 2.1 m/s)
Visibility: 10 or more miles (16+ km)
Ceiling: at least 12,000 feet AGL
Clouds: scattered clouds at 20000 feet AGL
Weather: no significant weather observed at this time

METAR text: KSNA 120153Z 23003KT 10SM SCT200 17/11 A3015 RMK AO2 SLP211 T01670111
Conditions at: KSNA (COSTA MESA , CA, US) observed 0153 UTC 12 December 2019
Temperature: 16.7°C (62°F)
Dewpoint: 11.1°C (52°F) [RH = 70%]
Pressure (altimeter): 30.15 inches Hg (1021.1 mb)
[Sea-level pressure: 1021.1 mb]
Winds: from the SW (230 degrees) at 3 MPH (3 knots; 1.5 m/s)
Visibility: 10 or more miles (16+ km)
Ceiling: at least 12,000 feet AGL
Clouds: scattered clouds at 20000 feet AGL
Weather: no significant weather observed at this time

Forecast for: KSNA (COSTA MESA , CA, US)
Text: KSNA 131255Z 1313/1412 VRB04KT 3SM BR BKN004
Forecast period: 1300 to 1600 UTC 13 December 2019
Forecast type: FROM: standard forecast or significant change
Winds: variable direction winds at 5 MPH (4 knots; 2.1 m/s)
Visibility: 3 miles (5 km)
Ceiling: 400 feet AGL
Clouds: broken clouds at 400 feet AGL
Weather: BR  (mist)
Text: TEMPO 1313/1316 1SM BR OVC002
Forecast period: 1300 to 1600 UTC 13 December 2019
Forecast type: TEMPORARY: The following changes expected for less than half the time period
Visibility: 1.00 miles (1.61 km)
Ceiling: 200 feet AGL
Clouds: overcast cloud deck at 200 feet AGL
Weather: BR  (mist)
Text: FM131600 VRB05KT P6SM FEW005 SCT250
Forecast period: 1600 to 2100 UTC 13 December 2019
Forecast type: FROM: standard forecast or significant change
Winds: variable direction winds at 6 MPH (5 knots; 2.6 m/s)
Visibility: 6 or more miles 10+ km)
Ceiling: at least 12,000 feet AGL
Clouds: few clouds at 500 feet AGL
scattered clouds at 25000 feet AGL
Weather: no significant weather forecast for this period
Text: FM132100 22008KT P6SM SCT250
Forecast period: 2100 UTC 13 December 2019 to 0900 UTC 14 December 2019
Forecast type: FROM: standard forecast or significant change
Winds: from the SW (220 degrees) at 9 MPH (8 knots; 4.1 m/s)
Visibility: 6 or more miles 10+ km)
Ceiling: at least 12,000 feet AGL
Clouds: scattered clouds at 25000 feet AGL
Weather: no significant weather forecast for this period
Text: FM140900 VRB04KT 4SM BR BKN010
Forecast period: 0900 to 1200 UTC 14 December 2019
Forecast type: FROM: standard forecast or significant change
Winds: variable direction winds at 5 MPH (4 knots; 2.1 m/s)
Visibility: 4 miles (6 km)
Ceiling: 1000 feet AGL
Clouds: broken clouds at 1000 feet AGL
Weather: BR  (mist)